sensor_id;sensor_type;location;lat;lon;timestamp;P1;durP1;ratioP1;P2;durP2;ratioP2
37321;SDS011;23697;48.684;9.032;2022-11-15T00:02:05;0.22;;;0.22;;
37321;SDS011;23697;48.684;9.032;2022-11-15T00:04:32;0.20;;;0.20;;
37321;SDS011;23697;48.684;9.032;2022-11-15T00:07:00;0.40;;;0.40;;
37321;SDS011;23697;48.684;9.032;2022-11-15T00:09:27;0.40;;;0.40;;
37321;SDS011;23697;48.684;9.032;2022-11-15T00:11:53;0.73;;;0.40;;
37321;SDS011;23697;48.684;9.032;2022-11-15T00:14:20;0.30;;;0.30;;
37321;SDS011;23697;48.684;9.032;2022-11-15T00:16:47;0.10;;;0.10;;
37321;SDS011;23697;48.684;9.032;2022-11-15T00:19:14;0.10;;;0.10;;
37321;SDS011;23697;48.684;9.032;2022-11-15T00:21:41;0.20;;;0.20;;
37321;SDS011;23697;48.684;9.032;2022-11-15T00:24:09;0.63;;;0.50;;
37321;SDS011;23697;48.684;9.032;2022-11-15T00:26:36;0.43;;;0.22;;
37321;SDS011;23697;48.684;9.032;2022-11-15T00:29:03;0.30;;;0.30;;
37321;SDS011;23697;48.684;9.032;2022-11-15T00:31:30;0.45;;;0.25;;
37321;SDS011;23697;48.684;9.032;2022-11-15T00:33:57;0.32;;;0.30;;
37321;SDS011;23697;48.684;9.032;2022-11-15T00:36:24;0.45;;;0.30;;
37321;SDS011;23697;48.684;9.032;2022-11-15T00:38:50;0.63;;;0.50;;
37321;SDS011;23697;48.684;9.032;2022-11-15T00:41:19;0.35;;;0.35;;
37321;SDS011;23697;48.684;9.032;2022-11-15T00:43:45;0.57;;;0.28;;
37321;SDS011;23697;48.684;9.032;2022-11-15T00:46:12;0.43;;;0.13;;
37321;SDS011;23697;48.684;9.032;2022-11-15T00:48:39;0.28;;;0.28;;
37321;SDS011;23697;48.684;9.032;2022-11-15T00:51:06;0.88;;;0.40;;
37321;SDS011;23697;48.684;9.032;2022-11-15T00:53:33;1.75;;;0.30;;
37321;SDS011;23697;48.684;9.032;2022-11-15T00:56:01;1.00;;;0.40;;
37321;SDS011;23697;48.684;9.032;2022-11-15T00:58:30;1.42;;;0.90;;
37321;SDS011;23697;48.684;9.032;2022-11-15T01:00:56;1.35;;;0.77;;
37321;SDS011;23697;48.684;9.032;2022-11-15T01:03:32;2.10;;;1.00;;
37321;SDS011;23697;48.684;9.032;2022-11-15T01:05:59;1.95;;;0.90;;
37321;SDS011;23697;48.684;9.032;2022-11-15T01:08:26;0.68;;;0.52;;
37321;SDS011;23697;48.684;9.032;2022-11-15T01:10:52;0.52;;;0.52;;
37321;SDS011;23697;48.684;9.032;2022-11-15T01:13:19;0.30;;;0.30;;
37321;SDS011;23697;48.684;9.032;2022-11-15T01:15:52;0.50;;;0.22;;
37321;SDS011;23697;48.684;9.032;2022-11-15T01:18:19;0.30;;;0.30;;
37321;SDS011;23697;48.684;9.032;2022-11-15T01:20:47;0.25;;;0.22;;
37321;SDS011;23697;48.684;9.032;2022-11-15T01:23:14;0.30;;;0.30;;
37321;SDS011;23697;48.684;9.032;2022-11-15T01:25:41;0.32;;;0.32;;
37321;SDS011;23697;48.684;9.032;2022-11-15T01:28:08;0.35;;;0.35;;
37321;SDS011;23697;48.684;9.032;2022-11-15T01:30:35;0.17;;;0.17;;
37321;SDS011;23697;48.684;9.032;2022-11-15T01:33:04;0.20;;;0.20;;
37321;SDS011;23697;48.684;9.032;2022-11-15T01:35:30;0.65;;;0.30;;
37321;SDS011;23697;48.684;9.032;2022-11-15T01:37:57;0.35;;;0.30;;
37321;SDS011;23697;48.684;9.032;2022-11-15T01:40:24;0.80;;;0.20;;
37321;SDS011;23697;48.684;9.032;2022-11-15T01:42:51;0.50;;;0.50;;
37321;SDS011;23697;48.684;9.032;2022-11-15T01:45:18;0.30;;;0.30;;
37321;SDS011;23697;48.684;9.032;2022-11-15T01:47:45;0.30;;;0.30;;
37321;SDS011;23697;48.684;9.032;2022-11-15T01:50:19;0.45;;;0.30;;
37321;SDS011;23697;48.684;9.032;2022-11-15T01:52:52;0.70;;;0.32;;
37321;SDS011;23697;48.684;9.032;2022-11-15T01:55:20;0.28;;;0.28;;
37321;SDS011;23697;48.684;9.032;2022-11-15T01:57:49;0.40;;;0.40;;
37321;SDS011;23697;48.684;9.032;2022-11-15T02:00:19;0.50;;;0.32;;
37321;SDS011;23697;48.684;9.032;2022-11-15T02:02:46;0.22;;;0.22;;
37321;SDS011;23697;48.684;9.032;2022-11-15T02:05:13;0.43;;;0.43;;
37321;SDS011;23697;48.684;9.032;2022-11-15T02:07:41;0.50;;;0.30;;
37321;SDS011;23697;48.684;9.032;2022-11-15T02:10:09;0.25;;;0.22;;
37321;SDS011;23697;48.684;9.032;2022-11-15T02:12:37;0.10;;;0.10;;
37321;SDS011;23697;48.684;9.032;2022-11-15T02:15:05;0.13;;;0.13;;
37321;SDS011;23697;48.684;9.032;2022-11-15T02:17:44;0.30;;;0.30;;
37321;SDS011;23697;48.684;9.032;2022-11-15T02:26:39;0.17;;;0.10;;
37321;SDS011;23697;48.684;9.032;2022-11-15T02:29:33;0.17;;;0.17;;
37321;SDS011;23697;48.684;9.032;2022-11-15T02:32:13;0.52;;;0.28;;
37321;SDS011;23697;48.684;9.032;2022-11-15T02:34:47;0.47;;;0.35;;
37321;SDS011;23697;48.684;9.032;2022-11-15T02:37:22;0.20;;;0.20;;
37321;SDS011;23697;48.684;9.032;2022-11-15T02:39:59;0.22;;;0.22;;
37321;SDS011;23697;48.684;9.032;2022-11-15T02:42:33;0.20;;;0.20;;
37321;SDS011;23697;48.684;9.032;2022-11-15T02:45:24;0.10;;;0.10;;
37321;SDS011;23697;48.684;9.032;2022-11-15T02:47:56;0.22;;;0.22;;
37321;SDS011;23697;48.684;9.032;2022-11-15T02:50:25;0.40;;;0.22;;
37321;SDS011;23697;48.684;9.032;2022-11-15T02:52:55;0.38;;;0.38;;
37321;SDS011;23697;48.684;9.032;2022-11-15T02:55:29;0.30;;;0.30;;
37321;SDS011;23697;48.684;9.032;2022-11-15T02:58:01;0.40;;;0.20;;
37321;SDS011;23697;48.684;9.032;2022-11-15T03:00:43;0.10;;;0.10;;
37321;SDS011;23697;48.684;9.032;2022-11-15T03:03:24;0.47;;;0.22;;
37321;SDS011;23697;48.684;9.032;2022-11-15T03:06:03;0.57;;;0.20;;
37321;SDS011;23697;48.684;9.032;2022-11-15T03:08:37;0.45;;;0.30;;
37321;SDS011;23697;48.684;9.032;2022-11-15T03:11:13;0.20;;;0.20;;
37321;SDS011;23697;48.684;9.032;2022-11-15T03:13:43;0.30;;;0.22;;
37321;SDS011;23697;48.684;9.032;2022-11-15T03:16:15;0.10;;;0.10;;
37321;SDS011;23697;48.684;9.032;2022-11-15T03:18:47;0.10;;;0.10;;
37321;SDS011;23697;48.684;9.032;2022-11-15T03:21:18;0.30;;;0.30;;
37321;SDS011;23697;48.684;9.032;2022-11-15T03:23:46;0.30;;;0.30;;
37321;SDS011;23697;48.684;9.032;2022-11-15T03:26:14;0.20;;;0.20;;
37321;SDS011;23697;48.684;9.032;2022-11-15T03:28:45;0.10;;;0.10;;
37321;SDS011;23697;48.684;9.032;2022-11-15T03:34:02;0.10;;;0.10;;
37321;SDS011;23697;48.684;9.032;2022-11-15T03:36:33;0.40;;;0.40;;
37321;SDS011;23697;48.684;9.032;2022-11-15T03:39:02;0.35;;;0.35;;
37321;SDS011;23697;48.684;9.032;2022-11-15T03:41:35;0.20;;;0.20;;
37321;SDS011;23697;48.684;9.032;2022-11-15T03:44:08;0.35;;;0.30;;
37321;SDS011;23697;48.684;9.032;2022-11-15T03:46:42;0.38;;;0.38;;
37321;SDS011;23697;48.684;9.032;2022-11-15T03:49:15;0.20;;;0.20;;
37321;SDS011;23697;48.684;9.032;2022-11-15T03:51:46;0.40;;;0.30;;
37321;SDS011;23697;48.684;9.032;2022-11-15T03:54:13;0.20;;;0.20;;
37321;SDS011;23697;48.684;9.032;2022-11-15T03:56:40;0.57;;;0.40;;
37321;SDS011;23697;48.684;9.032;2022-11-15T03:59:07;0.28;;;0.28;;
37321;SDS011;23697;48.684;9.032;2022-11-15T04:01:34;0.20;;;0.20;;
37321;SDS011;23697;48.684;9.032;2022-11-15T04:04:01;0.47;;;0.40;;
37321;SDS011;23697;48.684;9.032;2022-11-15T04:06:29;0.32;;;0.32;;
37321;SDS011;23697;48.684;9.032;2022-11-15T04:08:56;0.30;;;0.17;;
37321;SDS011;23697;48.684;9.032;2022-11-15T04:11:22;0.20;;;0.20;;
37321;SDS011;23697;48.684;9.032;2022-11-15T04:13:49;0.30;;;0.30;;
37321;SDS011;23697;48.684;9.032;2022-11-15T04:16:16;9.75;;;0.50;;
37321;SDS011;23697;48.684;9.032;2022-11-15T04:18:43;0.20;;;0.20;;
37321;SDS011;23697;48.684;9.032;2022-11-15T04:21:10;1.15;;;0.40;;
37321;SDS011;23697;48.684;9.032;2022-11-15T04:23:55;0.22;;;0.22;;
37321;SDS011;23697;48.684;9.032;2022-11-15T04:26:40;0.22;;;0.22;;
37321;SDS011;23697;48.684;9.032;2022-11-15T04:29:07;0.20;;;0.20;;
37321;SDS011;23697;48.684;9.032;2022-11-15T04:31:53;0.13;;;0.13;;
37321;SDS011;23697;48.684;9.032;2022-11-15T04:34:20;0.13;;;0.13;;
37321;SDS011;23697;48.684;9.032;2022-11-15T04:36:47;0.40;;;0.20;;
37321;SDS011;23697;48.684;9.032;2022-11-15T04:39:42;0.28;;;0.10;;
37321;SDS011;23697;48.684;9.032;2022-11-15T04:42:09;0.43;;;0.35;;
37321;SDS011;23697;48.684;9.032;2022-11-15T04:44:36;0.28;;;0.28;;
37321;SDS011;23697;48.684;9.032;2022-11-15T04:47:03;0.45;;;0.20;;
37321;SDS011;23697;48.684;9.032;2022-11-15T04:49:30;0.52;;;0.28;;
37321;SDS011;23697;48.684;9.032;2022-11-15T04:51:57;0.20;;;0.20;;
37321;SDS011;23697;48.684;9.032;2022-11-15T04:54:24;0.10;;;0.10;;
37321;SDS011;23697;48.684;9.032;2022-11-15T04:56:53;0.30;;;0.22;;
37321;SDS011;23697;48.684;9.032;2022-11-15T04:59:19;0.00;;;0.00;;
37321;SDS011;23697;48.684;9.032;2022-11-15T05:01:46;0.30;;;0.30;;
37321;SDS011;23697;48.684;9.032;2022-11-15T05:04:13;0.73;;;0.45;;
37321;SDS011;23697;48.684;9.032;2022-11-15T05:06:45;0.28;;;0.28;;
37321;SDS011;23697;48.684;9.032;2022-11-15T05:09:13;0.15;;;0.15;;
37321;SDS011;23697;48.684;9.032;2022-11-15T05:11:40;0.20;;;0.20;;
37321;SDS011;23697;48.684;9.032;2022-11-15T05:14:08;0.32;;;0.32;;
37321;SDS011;23697;48.684;9.032;2022-11-15T05:16:35;0.20;;;0.20;;
37321;SDS011;23697;48.684;9.032;2022-11-15T05:19:02;0.20;;;0.20;;
37321;SDS011;23697;48.684;9.032;2022-11-15T05:21:29;0.52;;;0.30;;
37321;SDS011;23697;48.684;9.032;2022-11-15T05:23:56;0.30;;;0.30;;
37321;SDS011;23697;48.684;9.032;2022-11-15T05:26:23;0.30;;;0.30;;
37321;SDS011;23697;48.684;9.032;2022-11-15T05:28:52;0.85;;;0.40;;
37321;SDS011;23697;48.684;9.032;2022-11-15T05:31:21;0.38;;;0.30;;
37321;SDS011;23697;48.684;9.032;2022-11-15T05:33:48;0.40;;;0.40;;
37321;SDS011;23697;48.684;9.032;2022-11-15T05:36:17;0.30;;;0.30;;
37321;SDS011;23697;48.684;9.032;2022-11-15T05:38:51;0.15;;;0.13;;
37321;SDS011;23697;48.684;9.032;2022-11-15T05:41:19;0.40;;;0.30;;
37321;SDS011;23697;48.684;9.032;2022-11-15T05:43:51;0.13;;;0.13;;
37321;SDS011;23697;48.684;9.032;2022-11-15T05:46:23;0.45;;;0.38;;
37321;SDS011;23697;48.684;9.032;2022-11-15T05:48:50;0.10;;;0.10;;
37321;SDS011;23697;48.684;9.032;2022-11-15T05:51:19;0.47;;;0.45;;
37321;SDS011;23697;48.684;9.032;2022-11-15T05:53:47;1.17;;;0.32;;
37321;SDS011;23697;48.684;9.032;2022-11-15T05:56:15;0.90;;;0.47;;
37321;SDS011;23697;48.684;9.032;2022-11-15T05:58:42;0.17;;;0.17;;
37321;SDS011;23697;48.684;9.032;2022-11-15T06:01:09;0.82;;;0.40;;
37321;SDS011;23697;48.684;9.032;2022-11-15T06:03:37;0.20;;;0.20;;
37321;SDS011;23697;48.684;9.032;2022-11-15T06:06:04;0.57;;;0.40;;
37321;SDS011;23697;48.684;9.032;2022-11-15T06:08:31;0.22;;;0.22;;
37321;SDS011;23697;48.684;9.032;2022-11-15T06:11:02;0.10;;;0.10;;
37321;SDS011;23697;48.684;9.032;2022-11-15T06:13:30;0.25;;;0.25;;
37321;SDS011;23697;48.684;9.032;2022-11-15T06:15:57;0.45;;;0.45;;
37321;SDS011;23697;48.684;9.032;2022-11-15T06:18:24;0.20;;;0.20;;
37321;SDS011;23697;48.684;9.032;2022-11-15T06:20:52;0.30;;;0.20;;
37321;SDS011;23697;48.684;9.032;2022-11-15T06:23:19;0.45;;;0.30;;
37321;SDS011;23697;48.684;9.032;2022-11-15T06:25:46;0.55;;;0.40;;
37321;SDS011;23697;48.684;9.032;2022-11-15T06:28:13;0.20;;;0.20;;
37321;SDS011;23697;48.684;9.032;2022-11-15T06:30:40;0.30;;;0.30;;
37321;SDS011;23697;48.684;9.032;2022-11-15T06:33:07;0.30;;;0.30;;
37321;SDS011;23697;48.684;9.032;2022-11-15T06:35:35;0.20;;;0.20;;
37321;SDS011;23697;48.684;9.032;2022-11-15T06:38:04;0.57;;;0.50;;
37321;SDS011;23697;48.684;9.032;2022-11-15T06:40:33;0.15;;;0.15;;
37321;SDS011;23697;48.684;9.032;2022-11-15T06:43:01;0.40;;;0.40;;
37321;SDS011;23697;48.684;9.032;2022-11-15T06:45:28;0.20;;;0.20;;
37321;SDS011;23697;48.684;9.032;2022-11-15T06:47:55;0.17;;;0.17;;
37321;SDS011;23697;48.684;9.032;2022-11-15T06:50:22;0.20;;;0.20;;
37321;SDS011;23697;48.684;9.032;2022-11-15T06:52:49;0.50;;;0.40;;
37321;SDS011;23697;48.684;9.032;2022-11-15T06:55:18;0.20;;;0.20;;
37321;SDS011;23697;48.684;9.032;2022-11-15T06:57:46;0.70;;;0.47;;
37321;SDS011;23697;48.684;9.032;2022-11-15T07:00:14;0.82;;;0.43;;
37321;SDS011;23697;48.684;9.032;2022-11-15T07:02:42;0.60;;;0.60;;
37321;SDS011;23697;48.684;9.032;2022-11-15T07:05:09;0.30;;;0.30;;
37321;SDS011;23697;48.684;9.032;2022-11-15T07:07:36;0.70;;;0.38;;
37321;SDS011;23697;48.684;9.032;2022-11-15T07:10:03;0.50;;;0.35;;
37321;SDS011;23697;48.684;9.032;2022-11-15T07:12:32;0.47;;;0.45;;
37321;SDS011;23697;48.684;9.032;2022-11-15T07:14:58;0.30;;;0.30;;
37321;SDS011;23697;48.684;9.032;2022-11-15T07:17:25;0.60;;;0.50;;
37321;SDS011;23697;48.684;9.032;2022-11-15T07:19:52;1.27;;;0.30;;
37321;SDS011;23697;48.684;9.032;2022-11-15T07:22:19;0.13;;;0.13;;
37321;SDS011;23697;48.684;9.032;2022-11-15T07:24:49;0.20;;;0.20;;
37321;SDS011;23697;48.684;9.032;2022-11-15T07:27:15;0.45;;;0.32;;
37321;SDS011;23697;48.684;9.032;2022-11-15T07:29:44;0.13;;;0.13;;
37321;SDS011;23697;48.684;9.032;2022-11-15T07:32:11;0.20;;;0.20;;
37321;SDS011;23697;48.684;9.032;2022-11-15T07:34:38;0.20;;;0.20;;
37321;SDS011;23697;48.684;9.032;2022-11-15T07:37:04;0.47;;;0.38;;
37321;SDS011;23697;48.684;9.032;2022-11-15T07:39:31;0.10;;;0.10;;
37321;SDS011;23697;48.684;9.032;2022-11-15T07:41:58;0.80;;;0.32;;
37321;SDS011;23697;48.684;9.032;2022-11-15T07:44:44;0.70;;;0.22;;
37321;SDS011;23697;48.684;9.032;2022-11-15T07:47:11;0.10;;;0.10;;
37321;SDS011;23697;48.684;9.032;2022-11-15T07:49:38;1.52;;;0.40;;
37321;SDS011;23697;48.684;9.032;2022-11-15T07:52:05;0.10;;;0.10;;
37321;SDS011;23697;48.684;9.032;2022-11-15T07:54:32;0.50;;;0.30;;
37321;SDS011;23697;48.684;9.032;2022-11-15T07:56:59;0.25;;;0.20;;
37321;SDS011;23697;48.684;9.032;2022-11-15T07:59:26;0.30;;;0.30;;
37321;SDS011;23697;48.684;9.032;2022-11-15T08:01:54;1.60;;;0.60;;
37321;SDS011;23697;48.684;9.032;2022-11-15T08:04:21;0.43;;;0.40;;
37321;SDS011;23697;48.684;9.032;2022-11-15T08:06:48;0.30;;;0.30;;
37321;SDS011;23697;48.684;9.032;2022-11-15T08:09:15;0.10;;;0.10;;
37321;SDS011;23697;48.684;9.032;2022-11-15T08:11:41;0.50;;;0.38;;
37321;SDS011;23697;48.684;9.032;2022-11-15T08:14:08;0.22;;;0.22;;
37321;SDS011;23697;48.684;9.032;2022-11-15T08:16:35;0.55;;;0.50;;
37321;SDS011;23697;48.684;9.032;2022-11-15T08:19:03;0.47;;;0.45;;
37321;SDS011;23697;48.684;9.032;2022-11-15T08:21:30;0.65;;;0.32;;
37321;SDS011;23697;48.684;9.032;2022-11-15T08:23:57;0.40;;;0.40;;
37321;SDS011;23697;48.684;9.032;2022-11-15T08:26:24;0.30;;;0.30;;
37321;SDS011;23697;48.684;9.032;2022-11-15T08:28:54;0.40;;;0.40;;
37321;SDS011;23697;48.684;9.032;2022-11-15T08:31:21;0.43;;;0.40;;
37321;SDS011;23697;48.684;9.032;2022-11-15T08:33:47;0.93;;;0.30;;
37321;SDS011;23697;48.684;9.032;2022-11-15T08:36:16;1.05;;;0.77;;
37321;SDS011;23697;48.684;9.032;2022-11-15T08:38:43;0.65;;;0.40;;
37321;SDS011;23697;48.684;9.032;2022-11-15T08:41:11;0.45;;;0.45;;
37321;SDS011;23697;48.684;9.032;2022-11-15T08:43:42;0.68;;;0.40;;
37321;SDS011;23697;48.684;9.032;2022-11-15T08:46:10;0.50;;;0.43;;
37321;SDS011;23697;48.684;9.032;2022-11-15T08:48:39;1.00;;;0.50;;
37321;SDS011;23697;48.684;9.032;2022-11-15T08:51:06;0.75;;;0.60;;
37321;SDS011;23697;48.684;9.032;2022-11-15T08:53:34;0.43;;;0.35;;
37321;SDS011;23697;48.684;9.032;2022-11-15T08:56:01;0.82;;;0.50;;
37321;SDS011;23697;48.684;9.032;2022-11-15T08:58:29;0.50;;;0.45;;
37321;SDS011;23697;48.684;9.032;2022-11-15T09:00:56;0.57;;;0.43;;
37321;SDS011;23697;48.684;9.032;2022-11-15T09:03:22;0.50;;;0.40;;
37321;SDS011;23697;48.684;9.032;2022-11-15T09:05:53;0.50;;;0.50;;
37321;SDS011;23697;48.684;9.032;2022-11-15T09:08:22;0.60;;;0.60;;
37321;SDS011;23697;48.684;9.032;2022-11-15T09:10:50;0.70;;;0.40;;
37321;SDS011;23697;48.684;9.032;2022-11-15T09:13:17;0.77;;;0.55;;
37321;SDS011;23697;48.684;9.032;2022-11-15T09:15:44;0.40;;;0.40;;
37321;SDS011;23697;48.684;9.032;2022-11-15T09:18:10;0.40;;;0.40;;
37321;SDS011;23697;48.684;9.032;2022-11-15T09:20:38;1.48;;;0.88;;
37321;SDS011;23697;48.684;9.032;2022-11-15T09:23:05;0.77;;;0.77;;
37321;SDS011;23697;48.684;9.032;2022-11-15T09:25:32;0.80;;;0.70;;
37321;SDS011;23697;48.684;9.032;2022-11-15T09:28:00;0.52;;;0.43;;
37321;SDS011;23697;48.684;9.032;2022-11-15T09:30:31;0.82;;;0.75;;
37321;SDS011;23697;48.684;9.032;2022-11-15T09:32:58;1.17;;;0.80;;
37321;SDS011;23697;48.684;9.032;2022-11-15T09:35:24;2.83;;;0.70;;
37321;SDS011;23697;48.684;9.032;2022-11-15T09:37:51;1.00;;;0.70;;
37321;SDS011;23697;48.684;9.032;2022-11-15T09:40:18;0.65;;;0.65;;
37321;SDS011;23697;48.684;9.032;2022-11-15T09:42:53;0.88;;;0.85;;
37321;SDS011;23697;48.684;9.032;2022-11-15T09:45:36;1.20;;;1.00;;
37321;SDS011;23697;48.684;9.032;2022-11-15T09:48:16;0.98;;;0.75;;
37321;SDS011;23697;48.684;9.032;2022-11-15T09:51:12;0.73;;;0.68;;
37321;SDS011;23697;48.684;9.032;2022-11-15T09:53:47;1.38;;;1.00;;
37321;SDS011;23697;48.684;9.032;2022-11-15T09:56:19;1.08;;;0.95;;
37321;SDS011;23697;48.684;9.032;2022-11-15T09:58:52;0.60;;;0.52;;
37321;SDS011;23697;48.684;9.032;2022-11-15T10:01:29;1.15;;;0.80;;
37321;SDS011;23697;48.684;9.032;2022-11-15T10:04:04;1.10;;;0.93;;
37321;SDS011;23697;48.684;9.032;2022-11-15T10:06:32;0.60;;;0.60;;
37321;SDS011;23697;48.684;9.032;2022-11-15T10:09:03;1.65;;;0.80;;
37321;SDS011;23697;48.684;9.032;2022-11-15T10:11:34;0.93;;;0.90;;
37321;SDS011;23697;48.684;9.032;2022-11-15T10:14:05;3.50;;;0.70;;
37321;SDS011;23697;48.684;9.032;2022-11-15T10:16:46;1.05;;;0.73;;
37321;SDS011;23697;48.684;9.032;2022-11-15T10:19:34;0.40;;;0.40;;
37321;SDS011;23697;48.684;9.032;2022-11-15T10:22:11;0.52;;;0.52;;
37321;SDS011;23697;48.684;9.032;2022-11-15T10:24:47;0.57;;;0.57;;
37321;SDS011;23697;48.684;9.032;2022-11-15T10:27:17;1.85;;;0.95;;
37321;SDS011;23697;48.684;9.032;2022-11-15T10:29:46;0.75;;;0.70;;
37321;SDS011;23697;48.684;9.032;2022-11-15T10:32:15;0.55;;;0.55;;
37321;SDS011;23697;48.684;9.032;2022-11-15T10:34:43;1.38;;;1.00;;
37321;SDS011;23697;48.684;9.032;2022-11-15T10:37:11;0.73;;;0.70;;
37321;SDS011;23697;48.684;9.032;2022-11-15T10:39:38;2.20;;;0.90;;
37321;SDS011;23697;48.684;9.032;2022-11-15T10:42:15;0.43;;;0.43;;
37321;SDS011;23697;48.684;9.032;2022-11-15T10:44:43;1.05;;;0.50;;
37321;SDS011;23697;48.684;9.032;2022-11-15T10:50:00;3.67;;;0.93;;
37321;SDS011;23697;48.684;9.032;2022-11-15T10:52:29;0.60;;;0.60;;
37321;SDS011;23697;48.684;9.032;2022-11-15T10:54:59;0.45;;;0.45;;
37321;SDS011;23697;48.684;9.032;2022-11-15T10:57:31;0.50;;;0.50;;
37321;SDS011;23697;48.684;9.032;2022-11-15T11:00:04;0.70;;;0.63;;
37321;SDS011;23697;48.684;9.032;2022-11-15T11:05:01;0.90;;;0.68;;
37321;SDS011;23697;48.684;9.032;2022-11-15T11:07:31;0.30;;;0.30;;
37321;SDS011;23697;48.684;9.032;2022-11-15T11:10:00;0.60;;;0.60;;
37321;SDS011;23697;48.684;9.032;2022-11-15T11:12:32;0.65;;;0.47;;
37321;SDS011;23697;48.684;9.032;2022-11-15T11:15:00;1.67;;;0.60;;
37321;SDS011;23697;48.684;9.032;2022-11-15T11:17:42;0.28;;;0.28;;
37321;SDS011;23697;48.684;9.032;2022-11-15T11:20:18;0.38;;;0.38;;
37321;SDS011;23697;48.684;9.032;2022-11-15T11:22:54;0.50;;;0.32;;
37321;SDS011;23697;48.684;9.032;2022-11-15T11:25:30;0.50;;;0.50;;
37321;SDS011;23697;48.684;9.032;2022-11-15T11:28:05;1.33;;;0.68;;
37321;SDS011;23697;48.684;9.032;2022-11-15T11:30:50;0.47;;;0.45;;
37321;SDS011;23697;48.684;9.032;2022-11-15T11:33:26;0.75;;;0.55;;
37321;SDS011;23697;48.684;9.032;2022-11-15T11:35:59;0.43;;;0.40;;
37321;SDS011;23697;48.684;9.032;2022-11-15T11:38:42;0.50;;;0.50;;
37321;SDS011;23697;48.684;9.032;2022-11-15T11:41:20;0.63;;;0.35;;
37321;SDS011;23697;48.684;9.032;2022-11-15T11:44:03;0.82;;;0.80;;
37321;SDS011;23697;48.684;9.032;2022-11-15T11:46:52;0.55;;;0.55;;
37321;SDS011;23697;48.684;9.032;2022-11-15T11:49:23;0.50;;;0.50;;
37321;SDS011;23697;48.684;9.032;2022-11-15T11:51:55;0.70;;;0.70;;
37321;SDS011;23697;48.684;9.032;2022-11-15T11:54:30;1.27;;;0.85;;
37321;SDS011;23697;48.684;9.032;2022-11-15T11:57:02;0.88;;;0.55;;
37321;SDS011;23697;48.684;9.032;2022-11-15T11:59:33;0.40;;;0.30;;
37321;SDS011;23697;48.684;9.032;2022-11-15T12:02:11;0.70;;;0.60;;
37321;SDS011;23697;48.684;9.032;2022-11-15T12:04:43;0.57;;;0.57;;
37321;SDS011;23697;48.684;9.032;2022-11-15T12:07:15;1.90;;;0.47;;
37321;SDS011;23697;48.684;9.032;2022-11-15T12:09:48;0.30;;;0.30;;
37321;SDS011;23697;48.684;9.032;2022-11-15T12:12:23;0.85;;;0.32;;
37321;SDS011;23697;48.684;9.032;2022-11-15T12:14:56;0.60;;;0.40;;
37321;SDS011;23697;48.684;9.032;2022-11-15T12:19:57;0.30;;;0.30;;
37321;SDS011;23697;48.684;9.032;2022-11-15T12:22:27;0.75;;;0.57;;
37321;SDS011;23697;48.684;9.032;2022-11-15T12:25:03;0.52;;;0.50;;
37321;SDS011;23697;48.684;9.032;2022-11-15T12:27:35;0.65;;;0.45;;
37321;SDS011;23697;48.684;9.032;2022-11-15T12:30:08;1.60;;;0.60;;
37321;SDS011;23697;48.684;9.032;2022-11-15T12:32:40;0.47;;;0.40;;
37321;SDS011;23697;48.684;9.032;2022-11-15T12:35:21;0.60;;;0.60;;
37321;SDS011;23697;48.684;9.032;2022-11-15T12:37:52;0.75;;;0.57;;
37321;SDS011;23697;48.684;9.032;2022-11-15T12:40:33;0.55;;;0.55;;
37321;SDS011;23697;48.684;9.032;2022-11-15T12:43:32;0.45;;;0.40;;
37321;SDS011;23697;48.684;9.032;2022-11-15T12:46:10;0.98;;;0.80;;
37321;SDS011;23697;48.684;9.032;2022-11-15T12:48:48;1.35;;;0.57;;
37321;SDS011;23697;48.684;9.032;2022-11-15T12:51:19;0.45;;;0.43;;
37321;SDS011;23697;48.684;9.032;2022-11-15T12:53:48;0.40;;;0.40;;
37321;SDS011;23697;48.684;9.032;2022-11-15T12:56:20;0.70;;;0.60;;
37321;SDS011;23697;48.684;9.032;2022-11-15T12:58:48;0.50;;;0.47;;
37321;SDS011;23697;48.684;9.032;2022-11-15T13:04:29;0.85;;;0.40;;
37321;SDS011;23697;48.684;9.032;2022-11-15T13:06:57;0.88;;;0.50;;
37321;SDS011;23697;48.684;9.032;2022-11-15T13:15:32;0.63;;;0.43;;
37321;SDS011;23697;48.684;9.032;2022-11-15T13:20:53;1.00;;;0.75;;
37321;SDS011;23697;48.684;9.032;2022-11-15T13:23:20;0.30;;;0.30;;
37321;SDS011;23697;48.684;9.032;2022-11-15T13:25:53;0.52;;;0.30;;
37321;SDS011;23697;48.684;9.032;2022-11-15T13:28:46;0.60;;;0.50;;
37321;SDS011;23697;48.684;9.032;2022-11-15T13:31:21;0.90;;;0.63;;
37321;SDS011;23697;48.684;9.032;2022-11-15T13:33:56;0.55;;;0.55;;
37321;SDS011;23697;48.684;9.032;2022-11-15T13:36:27;2.22;;;0.85;;
37321;SDS011;23697;48.684;9.032;2022-11-15T13:38:57;0.38;;;0.30;;
37321;SDS011;23697;48.684;9.032;2022-11-15T13:41:26;0.98;;;0.70;;
37321;SDS011;23697;48.684;9.032;2022-11-15T13:43:54;0.47;;;0.35;;
37321;SDS011;23697;48.684;9.032;2022-11-15T13:46:23;1.63;;;0.73;;
37321;SDS011;23697;48.684;9.032;2022-11-15T13:48:53;1.55;;;0.98;;
37321;SDS011;23697;48.684;9.032;2022-11-15T13:51:23;0.68;;;0.57;;
37321;SDS011;23697;48.684;9.032;2022-11-15T13:53:56;1.02;;;0.63;;
37321;SDS011;23697;48.684;9.032;2022-11-15T13:56:27;1.25;;;0.68;;
37321;SDS011;23697;48.684;9.032;2022-11-15T13:58:57;0.77;;;0.60;;
37321;SDS011;23697;48.684;9.032;2022-11-15T14:01:23;0.65;;;0.57;;
37321;SDS011;23697;48.684;9.032;2022-11-15T14:03:56;1.23;;;0.68;;
37321;SDS011;23697;48.684;9.032;2022-11-15T14:06:24;1.08;;;0.80;;
37321;SDS011;23697;48.684;9.032;2022-11-15T14:08:58;1.75;;;0.70;;
37321;SDS011;23697;48.684;9.032;2022-11-15T14:11:48;0.80;;;0.57;;
37321;SDS011;23697;48.684;9.032;2022-11-15T14:14:17;0.38;;;0.32;;
37321;SDS011;23697;48.684;9.032;2022-11-15T14:16:47;0.40;;;0.40;;
37321;SDS011;23697;48.684;9.032;2022-11-15T14:19:34;0.47;;;0.47;;
37321;SDS011;23697;48.684;9.032;2022-11-15T14:22:20;0.55;;;0.52;;
37321;SDS011;23697;48.684;9.032;2022-11-15T14:27:43;0.50;;;0.50;;
37321;SDS011;23697;48.684;9.032;2022-11-15T14:30:14;1.40;;;0.73;;
37321;SDS011;23697;48.684;9.032;2022-11-15T14:32:43;1.40;;;0.77;;
37321;SDS011;23697;48.684;9.032;2022-11-15T14:35:13;1.10;;;0.70;;
37321;SDS011;23697;48.684;9.032;2022-11-15T14:37:43;0.75;;;0.55;;
37321;SDS011;23697;48.684;9.032;2022-11-15T14:40:12;0.35;;;0.35;;
37321;SDS011;23697;48.684;9.032;2022-11-15T14:42:40;10.15;;;1.05;;
37321;SDS011;23697;48.684;9.032;2022-11-15T14:45:09;0.35;;;0.35;;
37321;SDS011;23697;48.684;9.032;2022-11-15T14:47:38;0.82;;;0.57;;
37321;SDS011;23697;48.684;9.032;2022-11-15T14:50:05;0.68;;;0.47;;
37321;SDS011;23697;48.684;9.032;2022-11-15T14:52:32;1.38;;;0.82;;
37321;SDS011;23697;48.684;9.032;2022-11-15T14:55:02;0.85;;;0.68;;
37321;SDS011;23697;48.684;9.032;2022-11-15T14:57:36;0.95;;;0.88;;
37321;SDS011;23697;48.684;9.032;2022-11-15T15:00:03;0.95;;;0.70;;
37321;SDS011;23697;48.684;9.032;2022-11-15T15:02:31;0.93;;;0.55;;
37321;SDS011;23697;48.684;9.032;2022-11-15T15:04:58;1.58;;;1.13;;
37321;SDS011;23697;48.684;9.032;2022-11-15T15:07:27;1.30;;;0.60;;
37321;SDS011;23697;48.684;9.032;2022-11-15T15:09:54;0.60;;;0.40;;
37321;SDS011;23697;48.684;9.032;2022-11-15T15:12:22;0.45;;;0.43;;
37321;SDS011;23697;48.684;9.032;2022-11-15T15:14:50;2.05;;;0.60;;
37321;SDS011;23697;48.684;9.032;2022-11-15T15:17:17;0.93;;;0.50;;
37321;SDS011;23697;48.684;9.032;2022-11-15T15:19:44;0.98;;;0.68;;
37321;SDS011;23697;48.684;9.032;2022-11-15T15:22:11;0.38;;;0.38;;
37321;SDS011;23697;48.684;9.032;2022-11-15T15:24:40;1.50;;;0.60;;
37321;SDS011;23697;48.684;9.032;2022-11-15T15:27:07;1.23;;;0.80;;
37321;SDS011;23697;48.684;9.032;2022-11-15T15:29:36;1.73;;;0.90;;
37321;SDS011;23697;48.684;9.032;2022-11-15T15:32:03;0.70;;;0.70;;
37321;SDS011;23697;48.684;9.032;2022-11-15T15:34:30;0.63;;;0.60;;
37321;SDS011;23697;48.684;9.032;2022-11-15T15:37:07;0.65;;;0.60;;
37321;SDS011;23697;48.684;9.032;2022-11-15T15:39:35;0.77;;;0.50;;